Portada
METAR-TAF:

METAR-TAF

Aeroports :

Latacunga, Equador

latitud: 00-55S, longitud: 078-37W, altitud: 2785 m

Observació

L'informe es va fer fa 43 minuts, a les 06:00 UTC
Vent 5 kt del Sud
Temperatura 10°C
Humitat 93%
Pressió 1028 hPa
Visibilitat 10 km o més
Núvols disperses a una alçada de 3000 ft
Núvols disperses a una alçada de 8000 ft

METAR: SELT 260600Z 18005KT 9999 SCT030 SCT080 10/09 Q1028

Hora: 01:43 (06:43 UTC)

Pronòstic

L'informe es va fer fa 1 hora i 58 minuts, a les 04:45 UTC
Pronòstic vàlid del 26 a les 06 UTC al 27 a les 06 UTC
Vent 5 kt del Sud
Visibilitat 10 km o més
Escasses núvols a una alçada de 1000 ft
Cel ennuvolat a una alçada de 2600 ft
Evolucionant progressivament
l' 26 a les 12 UTC al 26 a les 14 UTC
Vent 16 kt del Sud
Cel ennuvolat a una alçada de 3000 ft
Evolucionant progressivament
l' 27 a les 00 UTC al 27 a les 02 UTC
Vent 5 kt del Sud

TAF: SELT 260445Z 2606/2706 18005KT 9999 FEW010 BKN026 BECMG 2612/2614 17016KT BKN030 BECMG 2700/2702 18005KT TX18/2619Z TN07/2611Z

Observacions i pronòstics meteorològics de més de 4000 aeroports (METAR i TAF).

Les estacions disponibles són els punts grocs i vermells al mapa.

Posi el ratolí al punt desitjat per veure el nom de l'estació.

Feu clic per veure les observacions i els pronòstics meteorològics.

Per canviar el mapa: feu clic els botons verds amb una creu de color negre per apropar; al botó verd amb un guió per allunyar la imatge; o en les fletxes verdes per a mapes adjacents.


METAR-TAF: